Main page
METAR-TAF:

METAR-TAF

Airports :

Wittering, England

RAF Wittering

latitude: 52-37N, longitude: 000-28W, elevation: 84 m

Current weather observation

The report was made 1 hour and 3 minutes ago, at 16:50 UTC
Wind 2 kt from the North/Northeast
Temperature 11°C
Humidity 54%
Pressure 1015 hPa
Visibility 10 km or more

METAR: EGXT 281650Z AUTO 02002KT 9999 FEW044/// BKN050/// 11/02 Q1015

Time: 18:53 (17:53 UTC)

Forecast

The report was made 10 hours and 23 minutes ago, at 07:30 UTC
Forecast valid from 28 at 09 UTC to 28 at 18 UTC
Wind 7 kt from the North/Northwest
Visibility 10 km or more
Few clouds at a height of 3000 ft
Scattered clouds at a height of 4000 ft
Probability 30% :
Temporary
from 28 at 09 UTC to 28 at 10 UTC
Scattered clouds at a height of 1800 ft

TAF: EGXT 280730Z 2809/2818 34007KT 9999 FEW030 SCT040 PROB30 TEMPO 2809/2810 SCT018

Weather observations and forecasts of more than 4000 airports (METAR and TAF reports).

The available stations are represented by yellow and red dots on the map.

Hover mouse over dot to see the name of the station.

Then click to see weather observations and forecasts.

To change the map : click on the green buttons with a black cross to zoom in, on the green button with a dash to zoom out, or on the green arrows for adjacent maps.


METAR-TAF: